createdAt,value
2018-06-13T00:00:07.474Z,2.20
2018-06-13T00:02:41.591Z,2.60
2018-06-13T00:05:15.460Z,2.55
2018-06-13T00:07:50.249Z,3.13
2018-06-13T00:10:24.320Z,2.87
2018-06-13T00:12:56.898Z,2.80
2018-06-13T00:15:31.961Z,2.67
2018-06-13T00:18:06.124Z,2.53
2018-06-13T00:20:39.997Z,2.73
2018-06-13T00:23:13.977Z,2.60
2018-06-13T00:25:47.851Z,2.30
2018-06-13T00:28:22.071Z,2.73
2018-06-13T00:30:56.426Z,2.80
2018-06-13T00:33:30.717Z,2.72
2018-06-13T00:36:04.190Z,2.37
2018-06-13T00:38:38.237Z,2.50
2018-06-13T00:41:12.611Z,2.70
2018-06-13T00:43:46.778Z,2.57
2018-06-13T00:46:21.474Z,4.10
2018-06-13T00:48:53.753Z,3.33
2018-06-13T00:51:28.106Z,3.23
2018-06-13T00:54:03.377Z,3.60
2018-06-13T00:56:37.148Z,2.45
2018-06-13T00:59:10.870Z,2.67
2018-06-13T01:01:44.875Z,2.90
2018-06-13T01:04:18.837Z,3.30
2018-06-13T01:06:52.967Z,2.87
2018-06-13T01:09:26.769Z,3.00
2018-06-13T01:11:59.032Z,2.57
2018-06-13T01:14:32.965Z,2.77
2018-06-13T01:17:05.276Z,2.70
2018-06-13T01:19:39.948Z,2.80
2018-06-13T01:22:13.445Z,2.57
2018-06-13T01:24:47.792Z,3.17
2018-06-13T01:27:21.448Z,3.50
2018-06-13T01:29:56.107Z,2.83
2018-06-13T01:32:28.340Z,2.40
2018-06-13T01:35:02.600Z,2.80
2018-06-13T01:37:37.439Z,2.70
2018-06-13T01:40:11.914Z,2.97
2018-06-13T01:42:46.879Z,2.50
2018-06-13T01:45:19.393Z,2.53
2018-06-13T01:47:53.534Z,2.53
2018-06-13T01:50:27.538Z,2.70
2018-06-13T01:53:01.577Z,2.80
2018-06-13T01:55:36.208Z,2.83
2018-06-13T01:58:11.390Z,2.73
2018-06-13T02:01:21.526Z,2.52
2018-06-13T02:03:56.647Z,3.00
2018-06-13T02:06:30.655Z,2.67
2018-06-13T02:09:04.799Z,2.75
2018-06-13T02:11:38.498Z,2.50
2018-06-13T02:14:12.218Z,3.03
2018-06-13T02:16:46.903Z,3.20
2018-06-13T02:19:19.536Z,3.13
2018-06-13T02:21:55.009Z,3.03
2018-06-13T02:24:28.437Z,2.67
2018-06-13T02:27:02.683Z,3.10
2018-06-13T02:29:37.250Z,2.97
2018-06-13T02:32:12.240Z,3.20
2018-06-13T02:34:46.937Z,2.90
2018-06-13T02:37:20.952Z,3.20
2018-06-13T02:39:55.163Z,3.13
2018-06-13T02:42:30.710Z,2.87
2018-06-13T02:45:05.179Z,3.30
2018-06-13T02:47:39.113Z,3.30
2018-06-13T02:50:14.146Z,3.70
2018-06-13T02:52:48.061Z,2.90
2018-06-13T02:55:22.883Z,3.27
2018-06-13T02:57:59.080Z,3.47
2018-06-13T03:00:34.008Z,3.23
2018-06-13T03:03:08.019Z,3.63
2018-06-13T03:05:41.126Z,3.23
2018-06-13T03:08:15.094Z,3.20
2018-06-13T03:10:49.002Z,3.30
2018-06-13T03:13:21.616Z,3.27
2018-06-13T03:15:56.387Z,3.83
2018-06-13T03:18:29.941Z,3.33
2018-06-13T03:21:05.259Z,3.20
2018-06-13T03:23:39.218Z,3.90
2018-06-13T03:26:14.328Z,3.47
2018-06-13T03:28:48.060Z,3.77
2018-06-13T03:31:22.838Z,3.33
2018-06-13T03:33:57.079Z,3.57
2018-06-13T03:36:30.343Z,3.30
2018-06-13T03:39:05.562Z,3.20
2018-06-13T03:41:39.785Z,3.13
2018-06-13T03:44:14.904Z,2.87
2018-06-13T03:46:49.598Z,3.33
2018-06-13T03:49:29.104Z,2.87
2018-06-13T03:52:10.730Z,3.17
2018-06-13T03:54:48.438Z,2.70
2018-06-13T03:57:22.689Z,2.83
2018-06-13T03:59:58.349Z,3.17
2018-06-13T04:02:33.327Z,3.20
2018-06-13T04:05:07.831Z,3.50
2018-06-13T04:07:41.743Z,3.70
2018-06-13T04:10:16.256Z,3.40
2018-06-13T04:12:48.863Z,2.85
2018-06-13T04:15:23.073Z,3.70
2018-06-13T04:17:58.145Z,3.33
2018-06-13T04:20:33.244Z,3.90
2018-06-13T04:23:07.366Z,4.15
2018-06-13T04:25:41.630Z,3.30
2018-06-13T04:28:15.799Z,3.27
2018-06-13T04:30:50.070Z,4.25
2018-06-13T04:33:24.976Z,3.80
2018-06-13T04:35:59.805Z,3.72
2018-06-13T04:38:34.550Z,3.60
2018-06-13T04:41:08.352Z,2.80
2018-06-13T04:43:42.493Z,3.50
2018-06-13T04:46:16.315Z,3.60
2018-06-13T04:48:49.239Z,3.65
2018-06-13T04:51:23.338Z,3.27
2018-06-13T04:53:57.180Z,3.60
2018-06-13T04:56:30.906Z,3.40
2018-06-13T04:59:04.833Z,3.62
2018-06-13T05:40:41.396Z,3.22
2018-06-13T05:43:15.473Z,3.30
2018-06-13T05:45:50.048Z,3.72
2018-06-13T05:48:24.032Z,3.42
2018-06-13T05:50:58.192Z,4.03
2018-06-13T05:53:32.192Z,4.28
2018-06-13T05:56:06.770Z,5.22
2018-06-13T05:58:40.668Z,3.80
2018-06-13T06:01:14.877Z,3.58
2018-06-13T06:03:50.778Z,3.90
2018-06-13T06:06:24.809Z,3.70
2018-06-13T06:08:58.611Z,3.47
2018-06-13T06:11:33.896Z,3.87
2018-06-13T06:14:07.800Z,3.47
2018-06-13T06:16:42.759Z,3.77
2018-06-13T06:19:16.749Z,4.42
2018-06-13T06:21:50.803Z,3.25
2018-06-13T06:24:25.465Z,3.67
2018-06-13T06:26:59.410Z,3.47
2018-06-13T06:29:33.602Z,3.72
2018-06-13T06:32:07.493Z,3.42
2018-06-13T06:34:40.956Z,3.70
2018-06-13T06:37:14.867Z,3.52
2018-06-13T06:39:48.732Z,3.47
2018-06-13T06:42:22.749Z,3.33
2018-06-13T06:44:57.083Z,3.65
2018-06-13T06:47:30.928Z,3.72
2018-06-13T06:50:04.857Z,3.70
2018-06-13T06:52:39.155Z,3.50
2018-06-13T06:55:13.322Z,2.60
2018-06-13T06:57:47.283Z,2.70
2018-06-13T07:00:20.985Z,3.05
2018-06-13T07:02:54.946Z,2.80
2018-06-13T07:05:30.930Z,3.22
2018-06-13T07:08:05.474Z,3.10
2018-06-13T07:10:39.531Z,3.60
2018-06-13T07:13:13.664Z,2.97
2018-06-13T07:15:48.060Z,3.22
2018-06-13T07:18:20.436Z,3.60
2018-06-13T07:20:54.462Z,3.37
2018-06-13T07:23:27.938Z,2.87
2018-06-13T07:26:01.846Z,3.08
2018-06-13T07:28:35.023Z,2.50
2018-06-13T07:31:09.358Z,3.00
2018-06-13T07:33:43.428Z,13.35
2018-06-13T07:36:17.395Z,2.43
2018-06-13T07:38:51.010Z,3.30
2018-06-13T07:41:24.671Z,3.00
2018-06-13T07:43:58.562Z,3.10
2018-06-13T07:46:32.573Z,2.35
2018-06-13T07:49:06.972Z,3.02
2018-06-13T07:52:10.273Z,3.10
2018-06-13T07:54:44.532Z,2.98
2018-06-13T07:57:18.159Z,3.93
2018-06-13T07:59:52.180Z,3.03
2018-06-13T08:02:26.833Z,3.40
2018-06-13T08:05:01.082Z,3.50
2018-06-13T08:07:35.739Z,2.67
2018-06-13T08:10:09.749Z,3.15
2018-06-13T08:12:45.071Z,2.62
2018-06-13T08:15:19.114Z,3.83
2018-06-13T08:17:53.486Z,2.98
2018-06-13T08:20:28.186Z,2.62
2018-06-13T08:23:03.482Z,2.95
2018-06-13T08:25:38.589Z,3.47
2018-06-13T08:28:11.011Z,3.10
2018-06-13T08:30:47.452Z,2.90
2018-06-13T08:33:22.751Z,2.90
2018-06-13T08:35:59.581Z,2.72
2018-06-13T08:38:35.058Z,3.23
2018-06-13T08:41:08.853Z,2.72
2018-06-13T08:43:43.027Z,2.67
2018-06-13T08:46:17.058Z,2.47
2018-06-13T08:48:49.711Z,2.77
2018-06-13T08:51:24.363Z,3.22
2018-06-13T08:53:59.022Z,2.80
2018-06-13T08:56:33.602Z,2.80
2018-06-13T08:59:08.592Z,2.40
2018-06-13T09:01:42.740Z,2.72
2018-06-13T09:04:16.954Z,3.00
2018-06-13T09:06:52.261Z,3.17
2018-06-13T09:09:28.953Z,3.08
2018-06-13T09:12:03.892Z,2.90
2018-06-13T09:14:37.594Z,2.98
2018-06-13T09:17:13.280Z,3.58
2018-06-13T09:19:47.392Z,3.33
2018-06-13T09:22:22.157Z,3.70
2018-06-13T09:24:57.318Z,3.80
2018-06-13T09:27:31.065Z,3.17
2018-06-13T09:30:04.991Z,3.62
2018-06-13T09:32:38.782Z,3.02
2018-06-13T09:35:12.465Z,3.80
2018-06-13T09:37:46.742Z,3.60
2018-06-13T09:40:20.803Z,3.30
2018-06-13T09:42:55.442Z,3.98
2018-06-13T09:45:30.504Z,3.27
2018-06-13T09:48:04.562Z,3.40
2018-06-13T09:50:38.539Z,2.87
2018-06-13T09:53:12.587Z,2.70
2018-06-13T09:55:44.988Z,3.17
2018-06-13T09:58:17.378Z,3.70
2018-06-13T10:00:55.328Z,3.15
2018-06-13T10:03:29.582Z,2.92
2018-06-13T10:06:03.181Z,2.92
2018-06-13T10:08:37.526Z,2.83
2018-06-13T10:11:12.147Z,3.50
2018-06-13T10:13:46.728Z,2.92
2018-06-13T10:16:20.788Z,3.17
2018-06-13T10:18:54.721Z,3.40
2018-06-13T10:21:30.174Z,3.20
2018-06-13T10:24:05.065Z,3.55
2018-06-13T10:26:40.775Z,3.10
2018-06-13T10:51:36.306Z,3.62
2018-06-13T10:54:10.204Z,2.80
2018-06-13T10:56:44.972Z,2.75
2018-06-13T11:02:23.025Z,3.17
2018-06-13T11:04:57.265Z,3.27
2018-06-13T11:07:31.416Z,4.00
2018-06-13T11:10:06.693Z,3.13
2018-06-13T11:12:41.607Z,3.57
2018-06-13T11:15:15.368Z,3.73
2018-06-13T11:17:49.192Z,4.25
2018-06-13T11:20:23.366Z,4.23
2018-06-13T11:22:57.087Z,3.77
2018-06-13T11:25:32.226Z,3.87
2018-06-13T11:28:06.092Z,3.23
2018-06-13T11:30:40.022Z,3.37
2018-06-13T11:33:12.503Z,3.70
2018-06-13T11:35:46.311Z,3.70
2018-06-13T11:38:20.715Z,3.77
2018-06-13T11:40:54.564Z,3.63
2018-06-13T11:43:28.894Z,3.73
2018-06-13T11:46:03.464Z,4.25
2018-06-13T11:48:37.279Z,3.72
2018-06-13T11:51:10.802Z,3.90
2018-06-13T11:53:45.094Z,4.47
2018-06-13T11:56:18.851Z,4.20
2018-06-13T11:58:53.125Z,3.70
2018-06-13T12:01:27.585Z,4.67
2018-06-13T12:04:03.132Z,4.50
2018-06-13T12:06:47.132Z,4.70
2018-06-13T12:09:28.654Z,4.10
2018-06-13T12:12:02.439Z,4.20
2018-06-13T12:14:36.970Z,3.83
2018-06-13T12:17:11.257Z,3.07
2018-06-13T12:19:46.061Z,2.70
2018-06-13T12:22:20.390Z,2.97
2018-06-13T12:24:54.128Z,2.47
2018-06-13T12:27:28.097Z,2.40
2018-06-13T12:30:03.479Z,2.97
2018-06-13T12:32:38.063Z,2.77
2018-06-13T12:35:12.083Z,2.27
2018-06-13T12:37:46.649Z,2.50
2018-06-13T12:40:20.570Z,2.17
2018-06-13T12:42:54.982Z,2.33
2018-06-13T12:45:29.095Z,2.20
2018-06-13T12:48:03.332Z,2.33
2018-06-13T12:50:37.298Z,2.00
2018-06-13T12:53:11.446Z,2.50
2018-06-13T12:55:46.468Z,2.20
2018-06-13T12:58:20.481Z,2.43
2018-06-13T13:00:54.451Z,1.83
2018-06-13T13:03:28.886Z,2.20
2018-06-13T13:06:03.147Z,2.30
2018-06-13T13:08:37.617Z,2.43
2018-06-13T13:11:11.535Z,2.07
2018-06-13T13:13:45.766Z,2.33
2018-06-13T13:16:20.021Z,2.70
2018-06-13T13:18:54.146Z,2.40
2018-06-13T13:51:38.541Z,2.43
2018-06-13T13:54:18.915Z,2.20
2018-06-13T13:57:00.123Z,2.70
2018-06-13T13:59:35.391Z,2.37
2018-06-13T14:02:09.821Z,2.47
2018-06-13T14:04:43.613Z,2.40
2018-06-13T14:07:17.819Z,2.25
2018-06-13T14:09:52.185Z,2.37
2018-06-13T14:12:26.145Z,2.10
2018-06-13T14:15:00.156Z,2.20
2018-06-13T14:17:35.088Z,2.37
2018-06-13T14:20:09.883Z,3.17
2018-06-13T14:22:43.692Z,3.40
2018-06-13T14:25:17.779Z,3.20
2018-06-13T14:27:51.649Z,2.67
2018-06-13T14:30:25.673Z,2.60
2018-06-13T14:32:59.794Z,2.93
2018-06-13T14:35:33.725Z,3.40
2018-06-13T14:38:08.172Z,3.10
2018-06-13T14:40:42.190Z,3.20
2018-06-13T14:43:16.012Z,2.73
2018-06-13T14:45:50.129Z,2.93
2018-06-13T14:48:23.771Z,2.20
2018-06-13T14:50:57.856Z,3.00
2018-06-13T14:53:31.710Z,2.30
2018-06-13T14:56:09.569Z,2.13
2018-06-13T14:58:43.421Z,1.85
2018-06-13T15:01:17.370Z,1.87
2018-06-13T15:03:50.936Z,1.80
2018-06-13T15:06:25.697Z,1.60
2018-06-13T15:08:59.754Z,1.87
2018-06-13T15:11:33.877Z,2.30
2018-06-13T15:14:07.653Z,1.35
2018-06-13T15:16:41.265Z,1.60
2018-06-13T15:19:15.992Z,1.50
2018-06-13T15:21:50.947Z,1.83
2018-06-13T15:24:24.733Z,2.03
2018-06-13T15:26:58.615Z,1.57
2018-06-13T15:29:32.298Z,1.80
2018-06-13T15:32:04.932Z,1.37
2018-06-13T15:34:38.837Z,2.03
2018-06-13T15:37:13.020Z,1.82
2018-06-13T15:39:47.190Z,1.90
2018-06-13T15:42:21.220Z,1.90
2018-06-13T15:44:55.507Z,1.57
2018-06-13T15:47:29.089Z,1.77
2018-06-13T15:50:03.493Z,1.60
2018-06-13T15:52:37.638Z,1.60
2018-06-13T15:55:11.841Z,1.77
2018-06-13T15:57:45.548Z,1.20
2018-06-13T16:00:19.210Z,1.63
2018-06-13T16:02:53.755Z,1.65
2018-06-13T16:05:27.562Z,1.45
2018-06-13T16:08:01.918Z,1.12
2018-06-13T16:10:35.628Z,1.20
2018-06-13T16:13:10.081Z,1.27
2018-06-13T16:15:42.530Z,1.70
2018-06-13T16:18:16.629Z,1.90
2018-06-13T16:20:51.600Z,1.33
2018-06-13T16:23:24.054Z,1.70
2018-06-13T16:25:58.813Z,1.33
2018-06-13T16:28:32.748Z,1.87
2018-06-13T16:31:06.815Z,1.60
2018-06-13T16:33:41.528Z,1.67
2018-06-13T16:36:14.011Z,1.70
2018-06-13T16:38:47.857Z,1.50
2018-06-13T16:41:22.037Z,1.50
2018-06-13T16:43:54.228Z,1.63
2018-06-13T16:46:28.271Z,2.07
2018-06-13T16:49:04.112Z,1.83
2018-06-13T16:51:46.305Z,1.40
2018-06-13T16:54:25.167Z,1.27
2018-06-13T16:57:00.060Z,1.37
2018-06-13T16:59:34.258Z,1.50
2018-06-13T17:02:08.624Z,1.75
2018-06-13T17:04:42.387Z,1.45
2018-06-13T17:07:16.470Z,1.83
2018-06-13T17:09:50.164Z,1.73
2018-06-13T17:12:24.472Z,1.90
2018-06-13T17:14:59.519Z,1.50
2018-06-13T17:17:33.516Z,1.80
2018-06-13T17:20:07.744Z,1.70
2018-06-13T17:22:43.136Z,1.60
2018-06-13T17:25:17.248Z,1.85
2018-06-13T17:27:52.560Z,1.80
2018-06-13T17:30:26.356Z,1.60
2018-06-13T17:33:00.704Z,1.40
2018-06-13T17:35:35.216Z,1.62
2018-06-13T17:38:10.564Z,1.50
2018-06-13T17:40:44.403Z,1.70
2018-06-13T17:43:18.484Z,1.83
2018-06-13T17:45:50.927Z,1.63
2018-06-13T17:48:24.878Z,1.60
2018-06-13T17:50:57.503Z,1.77
2018-06-13T17:53:31.554Z,1.57
2018-06-13T17:56:03.894Z,2.10
2018-06-13T17:58:37.797Z,1.33
2018-06-13T18:01:12.431Z,2.37
2018-06-13T18:03:46.062Z,1.50
2018-06-13T18:06:20.065Z,1.50
2018-06-13T18:08:52.617Z,1.37
2018-06-13T18:11:26.665Z,1.40
2018-06-13T18:13:59.180Z,1.10
2018-06-13T18:16:33.357Z,1.60
2018-06-13T18:19:06.759Z,1.53
2018-06-13T18:21:40.541Z,1.50
2018-06-13T18:24:14.720Z,1.60
2018-06-13T18:26:49.121Z,1.27
2018-06-13T18:29:21.675Z,1.60
2018-06-13T18:31:54.422Z,1.27
2018-06-13T18:34:29.119Z,1.80
2018-06-13T18:37:03.207Z,1.40
2018-06-13T18:39:35.955Z,2.00
2018-06-13T18:42:09.787Z,1.70
2018-06-13T18:44:44.089Z,1.93
2018-06-13T18:47:18.054Z,1.47
2018-06-13T18:49:52.946Z,1.50
2018-06-13T18:52:26.896Z,1.67
2018-06-13T18:55:00.865Z,1.97
2018-06-13T18:57:34.041Z,1.67
2018-06-13T19:00:08.220Z,1.70
2018-06-13T19:02:41.971Z,1.70
2018-06-13T19:05:16.271Z,1.70
2018-06-13T19:07:50.358Z,1.80
2018-06-13T19:10:24.160Z,1.70
2018-06-13T19:12:58.092Z,1.47
2018-06-13T19:48:09.268Z,1.80
2018-06-13T19:50:41.468Z,1.50
2018-06-13T19:53:19.592Z,1.60
2018-06-13T19:55:57.664Z,1.83
2018-06-13T19:58:33.701Z,1.22
2018-06-13T20:01:08.207Z,1.37
2018-06-13T20:03:46.062Z,1.40
2018-06-13T20:06:21.040Z,1.73
2018-06-13T20:08:55.324Z,1.70
2018-06-13T20:11:30.368Z,1.62
2018-06-13T20:14:08.492Z,2.20
2018-06-13T20:17:49.240Z,1.67
2018-06-13T20:20:21.596Z,1.40
2018-06-13T20:22:55.535Z,1.40
2018-06-13T20:25:34.455Z,1.30
2018-06-13T20:28:12.362Z,1.20
2018-06-13T20:30:48.769Z,2.05
2018-06-13T20:33:23.215Z,2.30
2018-06-13T20:35:57.391Z,1.80
2018-06-13T20:38:31.169Z,1.40
2018-06-13T20:41:05.852Z,1.50
2018-06-13T20:43:39.812Z,1.70
2018-06-13T20:46:14.013Z,2.00
2018-06-13T20:48:46.450Z,1.20
2018-06-13T20:51:20.503Z,1.70
2018-06-13T20:53:54.682Z,1.50
2018-06-13T20:56:29.873Z,1.70
2018-06-13T20:59:04.355Z,2.63
2018-06-13T21:01:36.730Z,1.63
2018-06-13T21:04:11.206Z,1.40
2018-06-13T21:06:45.227Z,1.37
2018-06-13T21:09:19.514Z,2.07
2018-06-13T21:11:52.039Z,1.70
2018-06-13T21:14:26.003Z,1.70
2018-06-13T21:16:59.991Z,1.57
2018-06-13T21:19:33.733Z,1.52
2018-06-13T21:22:07.970Z,1.33
2018-06-13T21:24:42.303Z,1.60
2018-06-13T21:27:16.826Z,1.90
2018-06-13T21:29:50.916Z,1.67
2018-06-13T21:32:24.540Z,1.30
2018-06-13T21:35:00.923Z,1.73
2018-06-13T21:37:34.915Z,1.80
2018-06-13T21:40:08.983Z,2.00
2018-06-13T21:42:43.208Z,1.60
2018-06-13T21:45:16.136Z,1.73
2018-06-13T21:47:49.891Z,1.70
2018-06-13T21:50:22.379Z,1.30
2018-06-13T21:52:56.292Z,1.83
2018-06-13T21:55:31.284Z,1.80
2018-06-13T21:58:05.224Z,1.90
2018-06-13T22:00:37.935Z,1.35
2018-06-13T22:03:11.750Z,2.00
2018-06-13T22:05:46.413Z,1.67
2018-06-13T22:08:20.208Z,1.40
2018-06-13T22:10:54.222Z,1.40
2018-06-13T22:13:28.291Z,1.30
2018-06-13T22:16:00.949Z,1.43
2018-06-13T22:18:33.629Z,1.53
2018-06-13T22:21:06.289Z,1.35
2018-06-13T22:23:38.581Z,1.60
2018-06-13T22:26:10.821Z,1.50
2018-06-13T22:28:44.708Z,1.17
2018-06-13T22:31:18.747Z,1.33
2018-06-13T22:33:52.983Z,1.57
2018-06-13T22:36:27.680Z,1.40
2018-06-13T22:39:01.860Z,1.30
2018-06-13T22:41:35.923Z,1.57
2018-06-13T22:44:09.677Z,1.40
2018-06-13T22:46:43.798Z,1.97
2018-06-13T22:49:17.670Z,1.70
2018-06-13T22:51:51.063Z,1.77
2018-06-13T22:54:25.793Z,1.80
2018-06-13T22:56:59.672Z,1.70
2018-06-13T22:59:36.563Z,1.97
2018-06-13T23:02:10.856Z,1.50
2018-06-13T23:04:44.918Z,1.47
2018-06-13T23:07:19.103Z,1.80
2018-06-13T23:09:53.095Z,1.70
2018-06-13T23:12:27.006Z,1.70
2018-06-13T23:15:01.063Z,1.30
2018-06-13T23:20:38.141Z,1.43
2018-06-13T23:23:12.020Z,1.60
2018-06-13T23:25:46.940Z,1.22
2018-06-13T23:28:19.270Z,1.27
2018-06-13T23:30:53.310Z,1.30
2018-06-13T23:33:28.038Z,1.37
2018-06-13T23:36:00.699Z,1.10
2018-06-13T23:38:35.462Z,1.43
2018-06-13T23:41:09.590Z,1.40
2018-06-13T23:43:44.073Z,1.90
2018-06-13T23:46:19.223Z,1.60
2018-06-13T23:48:53.304Z,1.45
2018-06-13T23:51:27.599Z,1.90
2018-06-13T23:54:01.678Z,1.50
2018-06-13T23:56:35.912Z,1.50
2018-06-13T23:59:12.281Z,1.30
